.
WxDataArchive / Data Records for 2012-02-09
2012-02-08 February 2012 2012-02-10

Data Records for Thursday, 09 February 2012

Time	Temp	Chill	HIndex	Humid	Dewpt	 Wind 	HiWind	WindDir	Rain 	Barom 
-----	----	-----	------	-----	-----	------	------	-------	-----	----- 
00:00	25.6	25.6	25.6	77	19.4	0	2	315	0.00	30.299 
00:05	25.7	25.7	25.7	77	19.5	0	1	315	0.00	30.299 
00:10	25.6	25.6	25.6	77	19.4	0	1	315	0.00	30.299 
00:15	25.6	25.6	25.6	76	19.1	0	1	315	0.00	30.296 
00:20	25.6	25.6	25.6	77	19.4	0	1	315	0.00	30.296 
00:25	25.6	25.6	25.6	77	19.4	0	2	315	0.00	30.296 
00:30	25.7	25.7	25.7	77	19.5	0	1	315	0.00	30.297 
00:35	25.7	25.7	25.7	77	19.5	0	2	315	0.00	30.297 
00:40	25.7	25.7	25.7	76	19.2	0	1	315	0.00	30.297 
00:45	25.8	25.8	25.8	76	19.3	1	2	315	0.00	30.298 
00:50	26.0	26.0	26.0	76	19.5	0	2	315	0.00	30.298 
00:55	26.0	26.0	26.0	76	19.5	0	2	315	0.00	30.298 
01:00	26.0	26.0	26.0	75	19.2	0	2	315	0.00	30.297 
01:05	26.0	26.0	26.0	75	19.2	0	2	315	0.00	30.297 
01:10	26.0	26.0	26.0	75	19.2	1	2	315	0.00	30.297 
01:15	26.0	26.0	26.0	75	19.2	1	2	315	0.00	30.296 
01:20	26.0	26.0	26.0	75	19.2	1	2	315	0.00	30.296 
01:25	26.0	26.0	26.0	74	18.9	1	3	248	0.00	30.296 
01:30	26.1	26.1	26.1	73	18.7	1	3	248	0.00	30.297 
01:35	26.0	26.0	26.0	73	18.6	1	2	248	0.00	30.297 
01:40	26.0	26.0	26.0	73	18.6	1	2	248	0.00	30.297 
01:45	25.8	25.8	25.8	73	18.4	1	3	248	0.00	30.300 
01:50	25.8	25.8	25.8	73	18.4	1	3	248	0.00	30.300 
01:55	25.8	25.8	25.8	73	18.4	1	3	248	0.00	30.300 
02:00	25.7	25.7	25.7	74	18.6	1	4	248	0.00	30.303 
02:05	25.7	25.7	25.7	73	18.3	1	3	270	0.00	30.303 
02:10	25.6	25.6	25.6	74	18.5	1	2	270	0.00	30.303 
02:15	25.6	25.6	25.6	74	18.5	1	3	270	0.00	30.303 
02:20	25.6	25.6	25.6	74	18.5	1	2	270	0.00	30.303 
02:25	25.6	25.6	25.6	74	18.5	1	2	270	0.00	30.303 
02:30	25.4	25.4	25.4	74	18.3	0	1	270	0.00	30.301 
02:35	25.4	25.4	25.4	74	18.3	1	2	270	0.00	30.301 
02:40	25.3	25.3	25.3	74	18.2	0	1	270	0.00	30.301 
02:45	25.1	25.1	25.1	75	18.3	1	2	270	0.00	30.298 
02:50	25.1	25.1	25.1	75	18.3	1	2	270	0.00	30.298 
02:55	25.1	25.1	25.1	75	18.3	0	2	270	0.00	30.298 
03:00	25.0	25.0	25.0	75	18.2	0	3	248	0.00	30.297 
03:05	25.0	25.0	25.0	76	18.5	1	2	248	0.00	30.297 
03:10	24.8	24.8	24.8	76	18.3	0	2	248	0.00	30.297 
03:15	24.8	24.8	24.8	76	18.3	1	2	248	0.00	30.295 
03:20	24.8	24.8	24.8	76	18.3	0	3	248	0.00	30.295 
03:25	24.7	24.7	24.7	76	18.2	0	3	248	0.00	30.295 
03:30	24.7	24.7	24.7	77	18.5	1	3	248	0.00	30.293 
03:35	24.7	24.7	24.7	77	18.5	0	2	248	0.00	30.293 
03:40	24.7	24.7	24.7	77	18.5	0	2	248	0.00	30.293 
03:45	24.5	24.5	24.5	77	18.3	1	2	248	0.00	30.284 
03:50	24.5	24.5	24.5	77	18.3	0	2	248	0.00	30.284 
03:55	24.4	24.4	24.4	77	18.2	0	1	248	0.00	30.284 
04:00	24.4	24.4	24.4	77	18.2	0	2	248	0.00	30.282 
04:05	24.2	24.2	24.2	78	18.3	0	2	248	0.00	30.282 
04:10	24.2	24.2	24.2	78	18.3	0	2	248	0.00	30.282 
04:15	24.1	24.1	24.1	78	18.3	0	2	248	0.00	30.283 
04:20	24.1	24.1	24.1	78	18.3	0	1	248	0.00	30.283 
04:25	23.9	23.9	23.9	79	18.4	0	2	248	0.00	30.283 
04:30	23.9	23.9	23.9	79	18.4	1	3	248	0.00	30.284 
04:35	23.9	23.9	23.9	79	18.4	0	2	248	0.00	30.284 
04:40	23.9	23.9	23.9	79	18.4	1	2	248	0.00	30.284 
04:45	23.9	23.9	23.9	79	18.4	1	2	248	0.00	30.284 
04:50	23.8	23.8	23.8	80	18.5	1	2	248	0.00	30.284 
04:55	23.8	23.8	23.8	80	18.5	1	2	248	0.00	30.284 
05:00	23.6	23.6	23.6	80	18.4	0	2	248	0.00	30.289 
05:05	23.6	23.6	23.6	80	18.4	1	3	248	0.00	30.289 
05:10	23.6	23.6	23.6	80	18.4	1	2	248	0.00	30.289 
05:15	23.6	23.6	23.6	80	18.4	0	2	248	0.00	30.290 
05:20	23.5	23.5	23.5	80	18.3	0	2	248	0.00	30.290 
05:25	23.5	23.5	23.5	81	18.5	0	2	248	0.00	30.290 
05:30	23.5	23.5	23.5	81	18.5	0	2	248	0.00	30.291 
05:35	23.3	23.3	23.3	81	18.3	0	3	248	0.00	30.291 
05:40	23.3	23.3	23.3	81	18.3	0	2	248	0.00	30.291 
05:45	23.3	23.3	23.3	81	18.3	0	2	248	0.00	30.291 
05:50	23.3	23.3	23.3	81	18.3	1	3	248	0.00	30.291 
05:55	23.3	23.3	23.3	81	18.3	0	1	248	0.00	30.291 
06:00	23.2	23.2	23.2	81	18.3	1	3	248	0.00	30.292 
06:05	23.2	23.2	23.2	81	18.3	0	2	248	0.00	30.292 
06:10	23.2	23.2	23.2	81	18.3	0	2	248	0.00	30.292 
06:15	23.2	23.2	23.2	81	18.3	0	2	248	0.00	30.289 
06:20	23.2	23.2	23.2	81	18.3	0	2	248	0.00	30.289 
06:25	23.0	23.0	23.0	81	18.1	0	1	248	0.00	30.289 
06:30	23.0	23.0	23.0	81	18.1	0	2	248	0.00	30.292 
06:35	22.9	22.9	22.9	81	18.0	0	2	248	0.00	30.292 
06:40	22.9	22.9	22.9	82	18.2	0	2	248	0.00	30.292 
06:45	22.7	22.7	22.7	82	18.0	0	2	248	0.00	30.293 
06:50	22.7	22.7	22.7	82	18.0	0	1	248	0.00	30.293 
06:55	22.5	22.5	22.5	82	17.9	0	2	248	0.00	30.293 
07:00	22.5	22.5	22.5	82	17.9	0	2	248	0.00	30.299 
07:05	22.5	22.5	22.5	82	17.9	0	3	248	0.00	30.299 
07:10	22.5	22.5	22.5	82	17.9	0	2	248	0.00	30.299 
07:15	22.4	22.4	22.4	83	18.0	0	1	248	0.00	30.304 
07:20	22.2	22.2	22.2	83	17.8	0	3	248	0.00	30.304 
07:25	22.2	22.2	22.2	83	17.8	0	2	248	0.00	30.304 
07:30	22.2	22.2	22.2	83	17.8	0	2	248	0.00	30.304 
07:35	22.2	22.2	22.2	83	17.8	1	2	248	0.00	30.304 
07:40	22.4	22.4	22.4	83	18.0	0	2	248	0.00	30.304 
07:45	22.2	22.2	22.2	83	17.8	0	1	248	0.00	30.304 
07:50	22.2	22.2	22.2	83	17.8	0	2	248	0.00	30.304 
07:55	22.2	22.2	22.2	83	17.8	0	2	248	0.00	30.304 
08:00	22.2	22.2	22.2	83	17.8	1	3	248	0.00	30.308 
08:05	22.4	22.4	22.4	83	18.0	1	2	248	0.00	30.308 
08:10	22.4	22.4	22.4	83	18.0	0	2	248	0.00	30.308 
08:15	22.5	22.5	22.5	83	18.1	0	2	248	0.00	30.313 
08:20	22.5	22.5	22.5	83	18.1	1	3	248	0.00	30.313 
08:25	22.7	22.7	22.7	83	18.3	0	3	270	0.00	30.313 
08:30	23.0	23.0	23.0	83	18.6	1	3	90	0.00	30.312 
08:35	23.3	23.3	23.3	82	18.6	1	3	248	0.00	30.312 
08:40	23.6	23.6	23.6	82	18.9	2	3	248	0.00	30.312 
08:45	23.8	23.8	23.8	81	18.8	2	4	248	0.00	30.314 
08:50	24.1	24.1	24.1	81	19.1	1	4	248	0.00	30.314 
08:55	24.4	24.4	24.4	81	19.4	1	4	248	0.00	30.314 
09:00	24.5	24.5	24.5	80	19.2	2	4	225	0.00	30.312 
09:05	24.8	24.8	24.8	79	19.2	1	5	225	0.00	30.312 
09:10	25.0	25.0	25.0	78	19.1	2	5	248	0.00	30.312 
09:15	25.3	25.3	25.3	78	19.4	2	6	248	0.00	30.317 
09:20	25.6	25.6	25.6	77	19.4	1	5	270	0.00	30.317 
09:25	25.7	25.7	25.7	77	19.5	1	4	248	0.00	30.317 
09:30	26.0	26.0	26.0	76	19.5	2	4	248	0.00	30.316 
09:35	26.3	26.3	26.3	75	19.5	2	6	270	0.00	30.316 
09:40	26.4	26.4	26.4	73	18.9	3	6	248	0.00	30.316 
09:45	26.4	26.4	26.4	73	18.9	3	6	270	0.00	30.316 
09:50	26.6	26.6	26.6	72	18.8	3	6	248	0.00	30.316 
09:55	26.6	26.6	26.6	72	18.8	2	5	270	0.00	30.316 
10:00	26.9	26.9	26.9	71	18.8	3	5	248	0.00	30.316 
10:05	27.2	27.2	27.2	71	19.1	3	8	248	0.00	30.316 
10:10	27.3	27.3	27.3	69	18.5	3	6	270	0.00	30.316 
10:15	27.6	27.6	27.6	70	19.1	2	4	248	0.00	30.317 
10:20	27.8	27.8	27.8	68	18.6	3	9	248	0.00	30.317 
10:25	28.1	28.1	28.1	69	19.3	2	5	270	0.00	30.317 
10:30	28.2	28.2	28.2	68	19.0	3	9	270	0.00	30.317 
10:35	28.4	28.4	28.4	67	18.9	3	5	270	0.00	30.317 
10:40	28.4	28.4	28.4	67	18.9	3	6	248	0.00	30.317 
10:45	28.7	28.7	28.7	66	18.8	3	5	248	0.00	30.315 
10:50	28.8	28.8	28.8	65	18.5	3	7	248	0.00	30.315 
10:55	28.8	24.4	28.8	64	18.2	4	7	270	0.00	30.315 
11:00	29.0	29.0	29.0	65	18.7	3	6	248	0.00	30.316 
11:05	29.4	29.4	29.4	65	19.1	2	6	248	0.00	30.316 
11:10	29.5	29.5	29.5	65	19.2	2	5	270	0.00	30.316 
11:15	29.5	29.5	29.5	64	18.8	3	7	270	0.00	30.314 
11:20	29.7	29.7	29.7	63	18.7	3	9	270	0.00	30.314 
11:25	30.0	30.0	30.0	64	19.3	2	6	248	0.00	30.314 
11:30	30.1	30.1	30.1	62	18.7	3	6	248	0.00	30.314 
11:35	30.3	30.3	30.3	62	18.9	2	7	248	0.00	30.314 
11:40	30.3	30.3	30.3	62	18.9	3	7	248	0.00	30.314 
11:45	30.3	30.3	30.3	62	18.9	2	9	248	0.00	30.306 
11:50	30.6	30.6	30.6	62	19.2	2	6	248	0.00	30.306 
11:55	30.7	30.7	30.7	62	19.2	2	5	270	0.00	30.306 
12:00	30.7	30.7	30.7	61	18.9	3	7	248	0.00	30.301 
12:05	31.0	31.0	31.0	62	19.5	2	5	248	0.00	30.301 
12:10	31.2	31.2	31.2	60	19.0	2	6	248	0.00	30.301 
12:15	31.2	31.2	31.2	60	19.0	2	5	248	0.00	30.295 
12:20	31.6	31.6	31.6	62	20.1	1	4	270	0.00	30.295 
12:25	31.6	31.6	31.6	60	19.3	3	9	270	0.00	30.295 
12:30	31.6	31.6	31.6	60	19.3	2	5	248	0.00	30.282 
12:35	31.6	31.6	31.6	60	19.3	3	6	248	0.00	30.282 
12:40	31.9	31.9	31.9	62	20.4	2	5	248	0.00	30.282 
12:45	32.2	32.2	32.2	60	19.9	3	6	248	0.00	30.280 
12:50	32.2	32.2	32.2	59	19.5	3	7	270	0.00	30.280 
12:55	31.9	31.9	31.9	59	19.2	3	11	248	0.00	30.280 
13:00	31.8	31.8	31.8	61	19.9	2	7	248	0.00	30.273 
13:05	32.1	32.1	32.1	59	19.4	3	10	248	0.00	30.273 
13:10	32.1	32.1	32.1	60	19.8	3	6	248	0.00	30.273 
13:15	32.4	32.4	32.4	60	20.1	3	10	248	0.00	30.270 
13:20	32.7	32.7	32.7	60	20.4	2	4	248	0.00	30.270 
13:25	32.4	32.4	32.4	58	19.3	2	7	248	0.00	30.270 
13:30	31.9	31.9	31.9	59	19.2	3	6	248	0.00	30.266 
13:35	31.6	31.6	31.6	61	19.7	2	6	248	0.00	30.266 
13:40	32.1	32.1	32.1	61	20.2	2	4	248	0.00	30.266 
13:45	32.4	32.4	32.4	61	20.5	2	4	248	0.00	30.257 
13:50	32.4	32.4	32.4	61	20.5	3	7	248	0.00	30.257 
13:55	31.9	31.9	31.9	60	19.6	3	10	270	0.00	30.257 
14:00	31.8	31.8	31.8	61	19.9	2	5	248	0.00	30.251 
14:05	31.3	31.3	31.3	61	19.4	3	9	248	0.00	30.251 
14:10	30.9	30.9	30.9	62	19.4	2	4	248	0.00	30.251 
14:15	30.9	30.9	30.9	62	19.4	3	7	248	0.00	30.249 
14:20	31.0	31.0	31.0	62	19.5	2	7	248	0.00	30.249 
14:25	31.5	31.5	31.5	60	19.2	3	10	248	0.00	30.249 
14:30	31.8	31.8	31.8	59	19.1	2	6	248	0.00	30.241 
14:35	31.9	31.9	31.9	59	19.2	3	7	248	0.00	30.241 
14:40	31.8	31.8	31.8	59	19.1	2	6	248	0.00	30.241 
14:45	32.2	32.2	32.2	59	19.5	2	6	248	0.00	30.236 
14:50	32.4	32.4	32.4	59	19.7	2	5	270	0.00	30.236 
14:55	32.5	32.5	32.5	58	19.4	2	5	248	0.00	30.236 
15:00	32.5	32.5	32.5	58	19.4	2	4	248	0.00	30.226 
15:05	32.7	32.7	32.7	58	19.6	2	6	248	0.00	30.226 
15:10	32.4	32.4	32.4	57	18.9	2	7	248	0.00	30.226 
15:15	32.5	32.5	32.5	57	19.0	2	4	248	0.00	30.224 
15:20	32.7	32.7	32.7	57	19.2	2	6	248	0.00	30.224 
15:25	32.7	32.7	32.7	58	19.6	1	4	248	0.00	30.224 
15:30	33.2	33.2	33.2	56	19.2	2	5	248	0.00	30.221 
15:35	33.4	33.4	33.4	55	19.0	2	4	248	0.00	30.221 
15:40	33.4	33.4	33.4	57	19.8	1	4	248	0.00	30.221 
15:45	33.4	33.4	33.4	56	19.4	2	6	248	0.00	30.221 
15:50	32.9	32.9	32.9	57	19.4	2	5	248	0.00	30.221 
15:55	32.7	32.7	32.7	57	19.2	2	5	270	0.00	30.221 
16:00	32.4	32.4	32.4	58	19.3	1	6	270	0.00	30.223 
16:05	32.1	32.1	32.1	58	19.0	2	5	248	0.00	30.223 
16:10	31.8	31.8	31.8	59	19.1	2	7	248	0.00	30.223 
16:15	31.6	31.6	31.6	59	18.9	2	6	248	0.00	30.222 
16:20	31.5	31.5	31.5	59	18.8	2	9	248	0.00	30.222 
16:25	31.3	31.3	31.3	59	18.7	3	6	248	0.00	30.222 
16:30	31.3	31.3	31.3	60	19.0	2	7	248	0.00	30.223 
16:35	31.2	31.2	31.2	60	19.0	2	6	248	0.00	30.223 
16:40	30.9	30.9	30.9	61	19.1	2	5	248	0.00	30.223 
16:45	30.7	30.7	30.7	62	19.2	1	5	248	0.00	30.222 
16:50	30.9	30.9	30.9	61	19.1	2	10	248	0.00	30.222 
16:55	30.6	30.6	30.6	61	18.8	2	7	248	0.00	30.222 
17:00	30.4	30.4	30.4	62	19.0	2	5	248	0.00	30.221 
17:05	30.3	30.3	30.3	61	18.5	2	6	248	0.00	30.221 
17:10	30.0	30.0	30.0	61	18.2	2	9	248	0.00	30.221 
17:15	29.8	29.8	29.8	62	18.4	1	7	248	0.00	30.218 
17:20	29.8	29.8	29.8	63	18.8	2	7	248	0.00	30.218 
17:25	29.7	29.7	29.7	63	18.7	1	5	248	0.00	30.218 
17:30	29.5	29.5	29.5	63	18.5	3	8	248	0.00	30.210 
17:35	29.4	29.4	29.4	63	18.4	2	6	270	0.00	30.210 
17:40	29.1	29.1	29.1	63	18.1	2	5	248	0.00	30.210 
17:45	29.0	29.0	29.0	64	18.4	1	4	248	0.00	30.210 
17:50	28.8	28.8	28.8	65	18.5	2	5	248	0.00	30.210 
17:55	28.8	28.8	28.8	65	18.5	2	6	248	0.00	30.210 
18:00	28.7	28.7	28.7	65	18.4	1	4	225	0.00	30.208 
18:05	28.7	28.7	28.7	65	18.4	1	4	248	0.00	30.208 
18:10	28.5	28.5	28.5	65	18.3	1	4	248	0.00	30.208 
18:15	28.5	28.5	28.5	65	18.3	1	4	248	0.00	30.203 
18:20	28.5	28.5	28.5	65	18.3	2	4	248	0.00	30.203 
18:25	28.7	28.7	28.7	65	18.4	1	5	248	0.00	30.203 
18:30	28.7	28.7	28.7	65	18.4	1	4	248	0.00	30.202 
18:35	28.7	28.7	28.7	65	18.4	1	4	248	0.00	30.202 
18:40	28.5	28.5	28.5	65	18.3	0	2	248	0.00	30.202 
18:45	28.5	28.5	28.5	65	18.3	1	3	248	0.00	30.200 
18:50	28.5	28.5	28.5	65	18.3	1	3	248	0.00	30.200 
18:55	28.4	28.4	28.4	65	18.2	1	4	248	0.00	30.200 
19:00	28.4	28.4	28.4	65	18.2	0	3	270	0.00	30.198 
19:05	28.2	28.2	28.2	66	18.3	0	2	270	0.00	30.198 
19:10	28.2	28.2	28.2	66	18.3	0	4	248	0.00	30.198 
19:15	28.1	28.1	28.1	67	18.6	1	4	248	0.00	30.200 
19:20	28.1	28.1	28.1	67	18.6	0	3	248	0.00	30.200 
19:25	27.9	27.9	27.9	67	18.4	1	3	248	0.00	30.200 
19:30	27.9	27.9	27.9	67	18.4	1	4	248	0.00	30.199 
19:35	27.9	27.9	27.9	67	18.4	0	2	248	0.00	30.199 
19:40	27.8	27.8	27.8	67	18.3	0	2	248	0.00	30.199 
19:45	27.8	27.8	27.8	68	18.6	0	3	248	0.00	30.196 
19:50	27.6	27.6	27.6	68	18.4	0	1	248	0.00	30.196 
19:55	27.5	27.5	27.5	68	18.3	0	1	248	0.00	30.196 
20:00	27.5	27.5	27.5	69	18.7	0	2	248	0.00	30.194 
20:05	27.5	27.5	27.5	69	18.7	0	3	248	0.00	30.194 
20:10	27.5	27.5	27.5	69	18.7	0	2	248	0.00	30.194 
20:15	27.5	27.5	27.5	69	18.7	0	3	248	0.00	30.192 
20:20	27.5	27.5	27.5	69	18.7	0	2	248	0.00	30.192 
20:25	27.5	27.5	27.5	69	18.7	0	2	248	0.00	30.192 
20:30	27.5	27.5	27.5	69	18.7	0	3	248	0.00	30.196 
20:35	27.6	27.6	27.6	69	18.8	1	3	248	0.00	30.196 
20:40	27.6	27.6	27.6	69	18.8	1	4	248	0.00	30.196 
20:45	27.8	27.8	27.8	69	19.0	1	4	248	0.00	30.198 
20:50	27.8	27.8	27.8	68	18.6	1	4	248	0.00	30.198 
20:55	27.8	27.8	27.8	68	18.6	1	4	248	0.00	30.198 
21:00	27.8	27.8	27.8	68	18.6	1	3	248	0.00	30.203 
21:05	27.9	27.9	27.9	67	18.4	2	6	248	0.00	30.203 
21:10	27.9	27.9	27.9	66	18.0	1	4	248	0.00	30.203 
21:15	28.1	28.1	28.1	66	18.2	1	5	248	0.00	30.195 
21:20	28.1	28.1	28.1	66	18.2	1	4	248	0.00	30.195 
21:25	28.2	28.2	28.2	66	18.3	2	7	248	0.00	30.195 
21:30	28.2	28.2	28.2	66	18.3	1	4	248	0.00	30.198 
21:35	28.2	28.2	28.2	67	18.7	1	4	248	0.00	30.198 
21:40	28.1	28.1	28.1	67	18.6	1	4	248	0.00	30.198 
21:45	28.1	28.1	28.1	67	18.6	1	3	248	0.00	30.197 
21:50	27.9	27.9	27.9	67	18.4	0	2	248	0.00	30.197 
21:55	27.8	27.8	27.8	68	18.6	0	3	248	0.00	30.197 
22:00	27.6	27.6	27.6	68	18.4	0	2	248	0.00	30.192 
22:05	27.5	27.5	27.5	69	18.7	1	5	248	0.00	30.192 
22:10	27.5	27.5	27.5	69	18.7	0	2	270	0.00	30.192 
22:15	27.3	27.3	27.3	69	18.5	0	3	270	0.00	30.189 
22:20	27.2	27.2	27.2	69	18.4	0	1	248	0.00	30.189 
22:25	27.0	27.0	27.0	69	18.2	0	2	248	0.00	30.189 
22:30	26.9	26.9	26.9	70	18.4	0	2	248	0.00	30.184 
22:35	26.7	26.7	26.7	70	18.3	0	2	248	0.00	30.184 
22:40	26.7	26.7	26.7	70	18.3	0	3	248	0.00	30.184 
22:45	26.6	26.6	26.6	71	18.5	0	1	248	0.00	30.181 
22:50	26.6	26.6	26.6	71	18.5	0	1	248	0.00	30.181 
22:55	26.6	26.6	26.6	71	18.5	0	2	248	0.00	30.181 
23:00	26.4	26.4	26.4	72	18.6	0	2	248	0.00	30.179 
23:05	26.4	26.4	26.4	72	18.6	0	2	248	0.00	30.179 
23:10	26.3	26.3	26.3	73	18.8	0	2	248	0.00	30.179 
23:15	26.1	26.1	26.1	73	18.7	0	2	248	0.00	30.174 
23:20	26.1	26.1	26.1	73	18.7	0	2	248	0.00	30.174 
23:25	26.1	26.1	26.1	74	19.0	0	2	270	0.00	30.174 
23:30	26.3	26.3	26.3	74	19.2	0	3	270	0.00	30.168 
23:35	26.1	26.1	26.1	74	19.0	0	2	270	0.00	30.168 
23:40	26.1	26.1	26.1	74	19.0	0	2	270	0.00	30.168 
23:45	26.1	26.1	26.1	74	19.0	0	2	270	0.00	30.162 
23:50	26.0	26.0	26.0	74	18.9	0	3	270	0.00	30.162 
23:55	26.1	26.1	26.1	74	19.0	1	9	248	0.00	30.162 

CoCoRaHS
IN-AL-39
A2 Web Hosting
Creative Commons License
GoDaddy
search engine by freefind advanced

loaded 2018-11-17 06:20:13 • last modified 2010-11-18 10:43:29
Privacy PolicyDisclaimer
• wx.awcolley.com is powered by PmWiki v.2002016 •
• all content (unless otherwise noted) © 2018 A W Colley